Time,TemperatureF,DewpointF,PressureIn,WindDirection,WindDirectionDegrees,WindSpeedMPH,WindSpeedGustMPH,Humidity,HourlyPrecipIn,Conditions,Clouds,dailyrainin,SoftwareType,DateUTC
2013-01-13 00:22:00,38.0,22.0,30.07,North,0,0.0,-999.0,53,0.00,,,-99.99,,2013-01-13 08:22:00,
2013-01-13 00:32:00,38.0,22.0,30.07,North,0,0.0,-999.0,53,0.00,,,-99.99,,2013-01-13 08:32:00,
2013-01-13 00:42:00,38.0,22.0,30.07,North,0,0.0,-999.0,53,0.00,,,-99.99,,2013-01-13 08:42:00,
2013-01-13 00:52:00,38.0,22.0,30.07,North,0,0.0,-999.0,53,0.00,,,-99.99,,2013-01-13 08:52:00,
2013-01-13 01:22:00,36.0,23.0,30.08,North,0,0.0,-999.0,60,0.00,,,-99.99,,2013-01-13 09:22:00,
2013-01-13 01:32:00,36.0,23.0,30.08,North,0,0.0,-999.0,60,0.00,,,-99.99,,2013-01-13 09:32:00,
2013-01-13 01:42:00,36.0,23.0,30.08,North,0,0.0,-999.0,60,0.00,,,-99.99,,2013-01-13 09:42:00,
2013-01-13 01:52:00,36.0,23.0,30.08,North,0,0.0,-999.0,60,0.00,,,-99.99,,2013-01-13 09:52:00,
2013-01-13 02:22:00,35.0,23.0,30.09,North,0,0.0,-999.0,60,0.00,,,-99.99,,2013-01-13 10:22:00,
2013-01-13 02:32:00,35.0,23.0,30.09,North,0,0.0,-999.0,60,0.00,,,-99.99,,2013-01-13 10:32:00,
2013-01-13 02:42:00,35.0,23.0,30.09,North,0,0.0,-999.0,60,0.00,,,-99.99,,2013-01-13 10:42:00,
2013-01-13 02:52:00,35.0,23.0,30.09,North,0,0.0,-999.0,60,0.00,,,-99.99,,2013-01-13 10:52:00,
2013-01-13 03:22:00,34.0,23.0,30.09,North,0,0.0,-999.0,64,0.00,,,-99.99,,2013-01-13 11:22:00,
2013-01-13 03:32:00,34.0,23.0,30.09,North,0,0.0,-999.0,64,0.00,,,-99.99,,2013-01-13 11:32:00,
2013-01-13 03:42:00,34.0,23.0,30.09,North,0,0.0,-999.0,64,0.00,,,-99.99,,2013-01-13 11:42:00,
2013-01-13 03:52:00,34.0,23.0,30.09,North,0,0.0,-999.0,64,0.00,,,-99.99,,2013-01-13 11:52:00,
2013-01-13 04:22:00,33.0,23.0,30.09,North,0,0.0,-999.0,66,0.00,,,-99.99,,2013-01-13 12:22:00,
2013-01-13 04:32:00,33.0,23.0,30.09,North,0,0.0,-999.0,66,0.00,,,-99.99,,2013-01-13 12:32:00,
2013-01-13 04:42:00,33.0,23.0,30.09,North,0,0.0,-999.0,66,0.00,,,-99.99,,2013-01-13 12:42:00,
2013-01-13 04:52:00,33.0,23.0,30.09,North,0,0.0,-999.0,66,0.00,,,-99.99,,2013-01-13 12:52:00,
2013-01-13 05:22:00,32.0,24.0,30.09,North,0,0.0,-999.0,72,0.00,,,-99.99,,2013-01-13 13:22:00,
2013-01-13 06:22:00,31.0,23.0,30.11,North,0,0.0,-999.0,72,0.00,,,-99.99,,2013-01-13 14:22:00,
2013-01-13 06:33:00,31.0,23.0,30.11,North,0,0.0,-999.0,72,0.00,,,-99.99,,2013-01-13 14:33:00,
2013-01-13 07:22:00,31.0,22.0,30.13,North,0,0.0,-999.0,69,0.00,,,-99.99,,2013-01-13 15:22:00,
2013-01-13 07:33:00,31.0,22.0,30.13,North,0,0.0,-999.0,69,0.00,,,-99.99,,2013-01-13 15:33:00,
2013-01-13 07:43:00,31.0,22.0,30.13,North,0,0.0,-999.0,69,0.00,,,-99.99,,2013-01-13 15:43:00,
2013-01-13 07:52:00,31.0,22.0,30.13,North,0,0.0,-999.0,69,0.00,,,-99.99,,2013-01-13 15:52:00,
2013-01-13 08:22:00,33.0,22.0,30.14,North,0,0.0,-999.0,64,0.00,,,-99.99,,2013-01-13 16:22:00,
2013-01-13 08:33:00,33.0,22.0,30.14,North,0,0.0,-999.0,64,0.00,,,-99.99,,2013-01-13 16:33:00,
2013-01-13 08:42:00,33.0,22.0,30.14,North,0,0.0,-999.0,64,0.00,,,-99.99,,2013-01-13 16:42:00,
2013-01-13 08:52:00,33.0,22.0,30.14,North,0,0.0,-999.0,64,0.00,,,-99.99,,2013-01-13 16:52:00,
2013-01-13 09:33:00,40.0,21.0,30.14,North,0,0.0,-999.0,47,0.00,,,-99.99,,2013-01-13 17:33:00,
2013-01-13 09:42:00,40.0,21.0,30.14,North,0,0.0,-999.0,47,0.00,,,-99.99,,2013-01-13 17:42:00,
2013-01-13 09:53:00,40.0,21.0,30.14,North,0,0.0,-999.0,47,0.00,,,-99.99,,2013-01-13 17:53:00,
2013-01-13 10:22:00,49.0,18.0,30.12,North,0,0.0,-999.0,29,0.00,,,-99.99,,2013-01-13 18:22:00,
2013-01-13 10:32:00,49.0,18.0,30.12,North,0,0.0,-999.0,29,0.00,,,-99.99,,2013-01-13 18:32:00,
2013-01-13 10:42:00,49.0,18.0,30.12,North,0,0.0,-999.0,29,0.00,,,-99.99,,2013-01-13 18:42:00,
2013-01-13 10:53:00,49.0,18.0,30.12,North,0,0.0,-999.0,29,0.00,,,-99.99,,2013-01-13 18:53:00,
2013-01-13 11:22:00,54.0,14.0,30.08,North,0,0.0,-999.0,20,0.00,,,-99.99,,2013-01-13 19:22:00,
2013-01-13 11:33:00,54.0,14.0,30.08,North,0,0.0,-999.0,20,0.00,,,-99.99,,2013-01-13 19:33:00,
2013-01-13 11:42:00,54.0,14.0,30.08,North,0,0.0,-999.0,20,0.00,,,-99.99,,2013-01-13 19:42:00,
2013-01-13 11:52:00,54.0,14.0,30.08,North,0,0.0,-999.0,20,0.00,,,-99.99,,2013-01-13 19:52:00,
2013-01-13 12:22:00,55.0,14.0,30.05,East,100,1.0,-999.0,19,0.00,,,-99.99,,2013-01-13 20:22:00,
2013-01-13 12:32:00,55.0,14.0,30.05,East,100,1.0,-999.0,19,0.00,,,-99.99,,2013-01-13 20:32:00,
2013-01-13 12:43:00,55.0,14.0,30.05,East,100,1.0,-999.0,19,0.00,,,-99.99,,2013-01-13 20:43:00,
2013-01-13 12:52:00,55.0,14.0,30.05,East,100,1.0,-999.0,19,0.00,,,-99.99,,2013-01-13 20:52:00,
2013-01-13 13:23:00,56.0,13.0,30.02,North,0,0.0,-999.0,18,0.00,,,-99.99,,2013-01-13 21:23:00,
2013-01-13 13:32:00,56.0,13.0,30.02,North,0,0.0,-999.0,18,0.00,,,-99.99,,2013-01-13 21:32:00,
2013-01-13 13:42:00,56.0,13.0,30.02,North,0,0.0,-999.0,18,0.00,,,-99.99,,2013-01-13 21:42:00,
2013-01-13 13:52:00,56.0,13.0,30.02,North,0,0.0,-999.0,18,0.00,,,-99.99,,2013-01-13 21:52:00,
2013-01-13 14:22:00,57.0,14.0,30.00,SSW,210,3.0,-999.0,18,0.00,,,-99.99,,2013-01-13 22:22:00,
2013-01-13 14:33:00,57.0,14.0,30.00,SSW,210,3.0,-999.0,18,0.00,,,-99.99,,2013-01-13 22:33:00,
2013-01-13 14:42:00,57.0,14.0,30.00,SSW,210,3.0,-999.0,18,0.00,,,-99.99,,2013-01-13 22:42:00,
2013-01-13 14:52:00,57.0,14.0,30.00,SSW,210,3.0,-999.0,18,0.00,,,-99.99,,2013-01-13 22:52:00,
2013-01-13 15:22:00,56.0,14.0,30.01,NE,50,2.0,-999.0,19,0.00,,,-99.99,,2013-01-13 23:22:00,
2013-01-13 15:32:00,56.0,14.0,30.01,NE,50,2.0,-999.0,19,0.00,,,-99.99,,2013-01-13 23:32:00,
2013-01-13 15:42:00,56.0,14.0,30.01,NE,50,2.0,-999.0,19,0.00,,,-99.99,,2013-01-13 23:42:00,
2013-01-13 15:52:00,56.0,14.0,30.01,NE,50,2.0,-999.0,19,0.00,,,-99.99,,2013-01-13 23:52:00,
2013-01-13 16:22:00,55.0,14.0,29.99,North,0,0.0,-999.0,19,0.00,,,-99.99,,2013-01-14 00:22:00,
2013-01-13 16:32:00,55.0,14.0,29.99,North,0,0.0,-999.0,19,0.00,,,-99.99,,2013-01-14 00:32:00,
2013-01-13 16:43:00,55.0,14.0,29.99,North,0,0.0,-999.0,19,0.00,,,-99.99,,2013-01-14 00:43:00,
2013-01-13 16:52:00,55.0,14.0,29.99,North,0,0.0,-999.0,19,0.00,,,-99.99,,2013-01-14 00:52:00,
2013-01-13 17:22:00,52.0,16.0,29.99,North,0,0.0,-999.0,24,0.00,,,-99.99,,2013-01-14 01:22:00,
2013-01-13 17:32:00,52.0,16.0,29.99,North,0,0.0,-999.0,24,0.00,,,-99.99,,2013-01-14 01:32:00,
2013-01-13 17:42:00,52.0,16.0,29.99,North,0,0.0,-999.0,24,0.00,,,-99.99,,2013-01-14 01:42:00,
2013-01-13 17:52:00,52.0,16.0,29.99,North,0,0.0,-999.0,24,0.00,,,-99.99,,2013-01-14 01:52:00,
2013-01-13 18:22:00,50.0,17.0,30.01,North,0,0.0,-999.0,27,0.00,,,-99.99,,2013-01-14 02:22:00,
2013-01-13 18:32:00,50.0,17.0,30.01,North,0,0.0,-999.0,27,0.00,,,-99.99,,2013-01-14 02:32:00,
2013-01-13 18:42:00,50.0,17.0,30.01,North,0,0.0,-999.0,27,0.00,,,-99.99,,2013-01-14 02:42:00,
2013-01-13 18:53:00,50.0,17.0,30.01,North,0,0.0,-999.0,27,0.00,,,-99.99,,2013-01-14 02:53:00,
2013-01-13 19:22:00,48.0,20.0,30.04,North,0,0.0,-999.0,32,0.00,,,-99.99,,2013-01-14 03:22:00,
2013-01-13 19:32:00,48.0,20.0,30.04,North,0,0.0,-999.0,32,0.00,,,-99.99,,2013-01-14 03:32:00,
2013-01-13 19:42:00,48.0,20.0,30.04,North,0,0.0,-999.0,32,0.00,,,-99.99,,2013-01-14 03:42:00,
2013-01-13 19:52:00,48.0,20.0,30.04,North,0,0.0,-999.0,32,0.00,,,-99.99,,2013-01-14 03:52:00,
2013-01-13 20:22:00,45.0,21.0,30.05,North,0,0.0,-999.0,38,0.00,,,-99.99,,2013-01-14 04:22:00,
2013-01-13 20:32:00,45.0,21.0,30.05,North,0,0.0,-999.0,38,0.00,,,-99.99,,2013-01-14 04:32:00,
2013-01-13 21:22:00,43.0,21.0,30.06,North,0,0.0,-999.0,41,0.00,,,-99.99,,2013-01-14 05:22:00,
2013-01-13 21:32:00,43.0,21.0,30.06,North,0,0.0,-999.0,41,0.00,,,-99.99,,2013-01-14 05:32:00,
2013-01-13 22:22:00,45.0,10.0,30.09,NNW,340,2.0,-999.0,24,0.00,,,-99.99,,2013-01-14 06:22:00,
2013-01-13 22:32:00,45.0,10.0,30.09,NNW,340,2.0,-999.0,24,0.00,,,-99.99,,2013-01-14 06:32:00,
2013-01-13 22:42:00,45.0,10.0,30.09,NNW,340,2.0,-999.0,24,0.00,,,-99.99,,2013-01-14 06:42:00,
2013-01-13 22:52:00,45.0,10.0,30.09,NNW,340,2.0,-999.0,24,0.00,,,-99.99,,2013-01-14 06:52:00,
2013-01-13 23:22:00,45.0,8.0,30.12,NNW,340,7.0,-999.0,22,0.00,,,-99.99,,2013-01-14 07:22:00,
2013-01-13 23:32:00,45.0,8.0,30.12,NNW,340,7.0,-999.0,22,0.00,,,-99.99,,2013-01-14 07:32:00,
2013-01-13 23:42:00,45.0,8.0,30.12,NNW,340,7.0,-999.0,22,0.00,,,-99.99,,2013-01-14 07:42:00,
2013-01-13 23:52:00,45.0,8.0,30.12,NNW,340,7.0,-999.0,22,0.00,,,-99.99,,2013-01-14 07:52:00,